createdAt,value
2022-10-16T00:00:54.419Z,21.28
2022-10-16T00:03:20.977Z,21.28
2022-10-16T00:05:47.575Z,21.27
2022-10-16T00:08:14.853Z,21.25
2022-10-16T00:10:41.786Z,21.25
2022-10-16T00:13:09.190Z,21.23
2022-10-16T00:15:40.353Z,21.24
2022-10-16T00:18:06.987Z,21.23
2022-10-16T00:20:37.947Z,21.21
2022-10-16T00:23:05.692Z,21.20
2022-10-16T00:25:33.922Z,21.19
2022-10-16T00:28:01.773Z,21.18
2022-10-16T00:30:29.139Z,21.17
2022-10-16T00:32:56.240Z,21.16
2022-10-16T00:35:22.908Z,21.14
2022-10-16T00:37:49.523Z,21.13
2022-10-16T00:40:16.142Z,21.11
2022-10-16T00:42:42.707Z,21.11
2022-10-16T00:45:10.081Z,21.10
2022-10-16T00:47:41.847Z,21.09
2022-10-16T00:50:20.097Z,21.08
2022-10-16T00:52:47.822Z,21.08
2022-10-16T00:55:15.135Z,21.08
2022-10-16T00:57:42.907Z,21.06
2022-10-16T01:00:10.565Z,21.04
2022-10-16T01:02:37.620Z,21.05
2022-10-16T01:05:05.446Z,21.04
2022-10-16T01:07:32.017Z,21.02
2022-10-16T01:10:05.640Z,21.02
2022-10-16T01:12:32.289Z,21.01
2022-10-16T01:15:11.684Z,21.01
2022-10-16T01:17:42.591Z,20.99
2022-10-16T01:20:12.416Z,20.99
2022-10-16T01:22:57.521Z,20.99
2022-10-16T01:25:31.391Z,20.96
2022-10-16T01:27:58.504Z,20.97
2022-10-16T01:30:27.444Z,20.95
2022-10-16T01:32:57.310Z,20.93
2022-10-16T01:35:29.854Z,20.92
2022-10-16T01:37:56.447Z,20.92
2022-10-16T01:40:24.861Z,20.91
2022-10-16T01:42:54.191Z,20.91
2022-10-16T01:45:21.336Z,20.89
2022-10-16T01:47:49.183Z,20.88
2022-10-16T01:50:17.259Z,20.88
2022-10-16T01:52:45.937Z,20.87
2022-10-16T01:55:14.511Z,20.86
2022-10-16T01:57:43.517Z,20.88
2022-10-16T02:00:11.937Z,20.86
2022-10-16T02:02:40.074Z,20.86
2022-10-16T02:05:11.811Z,20.86
2022-10-16T02:07:38.474Z,20.85
2022-10-16T02:10:05.494Z,20.83
2022-10-16T02:12:33.696Z,20.83
2022-10-16T02:15:00.546Z,20.81
2022-10-16T02:17:28.540Z,20.81
2022-10-16T02:19:57.153Z,20.81
2022-10-16T02:22:24.254Z,20.81
2022-10-16T02:24:55.215Z,20.78
2022-10-16T02:27:42.827Z,20.78
2022-10-16T02:30:09.572Z,20.77
2022-10-16T02:32:38.433Z,20.78
2022-10-16T02:35:05.520Z,20.77
2022-10-16T02:37:32.824Z,20.76
2022-10-16T02:39:59.617Z,20.76
2022-10-16T02:42:39.466Z,20.76
2022-10-16T02:45:06.892Z,20.75
2022-10-16T02:47:33.460Z,20.74
2022-10-16T02:50:00.401Z,20.71
2022-10-16T02:52:27.277Z,20.71
2022-10-16T02:54:54.047Z,20.70
2022-10-16T02:57:20.707Z,20.68
2022-10-16T02:59:47.319Z,20.66
2022-10-16T03:02:13.999Z,20.65
2022-10-16T03:04:40.634Z,20.65
2022-10-16T03:07:07.243Z,20.65
2022-10-16T03:09:33.813Z,20.64
2022-10-16T03:12:00.377Z,20.64
2022-10-16T03:17:14.275Z,20.62
2022-10-16T03:19:40.914Z,20.62
2022-10-16T03:22:07.482Z,20.64
2022-10-16T03:24:34.042Z,20.64
2022-10-16T03:27:00.728Z,20.63
2022-10-16T03:29:27.469Z,20.60
2022-10-16T03:31:54.241Z,20.58
2022-10-16T03:34:20.826Z,20.57
2022-10-16T03:36:47.464Z,20.56
2022-10-16T03:39:14.180Z,20.55
2022-10-16T03:41:40.747Z,20.54
2022-10-16T03:44:07.368Z,20.53
2022-10-16T03:46:33.938Z,20.51
2022-10-16T03:49:00.486Z,20.51
2022-10-16T03:51:27.113Z,20.51
2022-10-16T03:53:54.242Z,20.49
2022-10-16T03:56:20.799Z,20.48
2022-10-16T03:58:47.380Z,20.46
2022-10-16T04:01:14.010Z,20.45
2022-10-16T04:03:40.728Z,20.42
2022-10-16T04:06:07.357Z,20.42
2022-10-16T04:08:36.063Z,20.42
2022-10-16T04:11:02.801Z,20.40
2022-10-16T04:13:30.184Z,20.39
2022-10-16T04:15:56.756Z,20.37
2022-10-16T04:18:23.438Z,20.36
2022-10-16T04:20:50.044Z,20.34
2022-10-16T04:23:16.692Z,20.33
2022-10-16T04:25:43.379Z,20.33
2022-10-16T04:28:09.981Z,20.32
2022-10-16T04:30:38.668Z,20.32
2022-10-16T04:33:05.249Z,20.31
2022-10-16T04:35:31.954Z,20.30
2022-10-16T04:37:59.100Z,20.30
2022-10-16T04:40:25.675Z,20.28
2022-10-16T04:42:52.375Z,20.29
2022-10-16T04:45:19.019Z,20.28
2022-10-16T04:47:45.636Z,20.28
2022-10-16T04:50:12.283Z,20.26
2022-10-16T04:52:38.986Z,20.26
2022-10-16T04:55:07.017Z,20.26
2022-10-16T04:57:41.961Z,20.25
2022-10-16T05:00:09.319Z,20.24
2022-10-16T05:02:35.998Z,20.25
2022-10-16T05:05:02.608Z,20.24
2022-10-16T05:07:34.366Z,20.24
2022-10-16T05:10:02.807Z,20.22
2022-10-16T05:12:29.422Z,20.21
2022-10-16T05:14:59.804Z,20.21
2022-10-16T05:17:44.753Z,20.21
2022-10-16T05:20:11.800Z,20.20
2022-10-16T05:22:38.366Z,20.18
2022-10-16T05:25:05.553Z,20.18
2022-10-16T05:27:42.414Z,20.17
2022-10-16T05:30:11.642Z,20.16
2022-10-16T05:32:39.144Z,20.16
2022-10-16T05:35:08.708Z,20.16
2022-10-16T05:37:38.365Z,20.15
2022-10-16T05:40:06.118Z,20.14
2022-10-16T05:42:32.688Z,20.14
2022-10-16T05:44:59.241Z,20.12
2022-10-16T05:47:25.917Z,20.12
2022-10-16T05:49:52.714Z,20.11
2022-10-16T05:52:19.390Z,20.11
2022-10-16T05:54:46.057Z,20.09
2022-10-16T05:57:12.604Z,20.08
2022-10-16T05:59:39.322Z,20.09
2022-10-16T06:02:06.008Z,20.08
2022-10-16T06:04:32.676Z,20.08
2022-10-16T06:07:01.492Z,20.08
2022-10-16T06:09:28.079Z,20.07
2022-10-16T06:11:54.648Z,20.07
2022-10-16T06:14:21.222Z,20.08
2022-10-16T06:16:48.529Z,20.07
2022-10-16T06:19:15.319Z,20.08
2022-10-16T06:21:42.000Z,20.10
2022-10-16T06:24:09.210Z,20.13
2022-10-16T06:26:35.819Z,20.16
2022-10-16T06:29:02.585Z,20.20
2022-10-16T06:31:32.167Z,20.23
2022-10-16T06:33:59.274Z,20.28
2022-10-16T06:36:26.178Z,20.32
2022-10-16T06:38:52.768Z,20.37
2022-10-16T06:41:20.996Z,20.41
2022-10-16T06:43:47.791Z,20.44
2022-10-16T06:46:16.105Z,20.50
2022-10-16T06:48:42.763Z,20.53
2022-10-16T06:51:12.108Z,20.57
2022-10-16T06:54:00.955Z,20.63
2022-10-16T06:56:28.478Z,20.68
2022-10-16T06:58:55.190Z,20.73
2022-10-16T07:01:23.233Z,20.77
2022-10-16T07:03:50.304Z,20.82
2022-10-16T07:06:18.398Z,20.86
2022-10-16T07:08:45.891Z,20.92
2022-10-16T07:11:14.167Z,20.98
2022-10-16T07:13:41.703Z,21.02
2022-10-16T07:16:09.655Z,21.07
2022-10-16T07:18:36.519Z,21.11
2022-10-16T07:21:06.215Z,21.15
2022-10-16T07:23:32.801Z,21.19
2022-10-16T07:25:59.377Z,21.23
2022-10-16T07:28:26.334Z,21.27
2022-10-16T07:30:52.960Z,21.32
2022-10-16T07:33:19.563Z,21.34
2022-10-16T07:35:50.429Z,21.38
2022-10-16T07:38:17.711Z,21.41
2022-10-16T07:40:44.374Z,21.45
2022-10-16T07:43:10.989Z,21.47
2022-10-16T11:04:08.613Z,19.93
2022-10-16T11:09:40.783Z,20.08
2022-10-16T11:12:10.504Z,20.15
2022-10-16T11:14:44.601Z,20.21
2022-10-16T11:17:27.422Z,20.26
2022-10-16T11:20:06.215Z,20.33
2022-10-16T11:22:38.793Z,20.40
2022-10-16T11:25:05.414Z,20.45
2022-10-16T11:27:40.580Z,20.51
2022-10-16T11:30:14.803Z,20.57
2022-10-16T11:32:51.798Z,20.63
2022-10-16T11:35:42.240Z,20.68
2022-10-16T11:38:14.880Z,20.73
2022-10-16T11:40:43.323Z,20.79
2022-10-16T11:43:21.809Z,20.82
2022-10-16T11:45:52.666Z,20.87
2022-10-16T11:48:24.075Z,20.90
2022-10-16T11:51:07.078Z,20.94
2022-10-16T11:53:36.909Z,20.97
2022-10-16T11:56:05.070Z,21.01
2022-10-16T11:58:42.501Z,21.03
2022-10-16T12:01:18.063Z,21.04
2022-10-16T12:03:50.632Z,21.08
2022-10-16T12:06:21.728Z,21.09
2022-10-16T12:08:49.150Z,21.11
2022-10-16T12:11:28.340Z,21.11
2022-10-16T12:14:08.376Z,21.14
2022-10-16T12:16:35.331Z,21.17
2022-10-16T12:19:16.420Z,21.17
2022-10-16T12:21:56.951Z,21.20
2022-10-16T12:24:33.212Z,21.22
2022-10-16T12:27:00.527Z,21.23
2022-10-16T12:29:32.964Z,21.25
2022-10-16T12:32:01.091Z,21.27
2022-10-16T12:34:30.534Z,21.28
2022-10-16T12:36:57.779Z,21.30
2022-10-16T12:39:26.173Z,21.32
2022-10-16T12:42:04.606Z,21.33
2022-10-16T12:44:36.502Z,21.35
2022-10-16T12:47:03.724Z,21.36
2022-10-16T12:49:32.319Z,21.39
2022-10-16T12:51:59.291Z,21.38
2022-10-16T12:54:31.008Z,21.40
2022-10-16T12:57:06.056Z,21.41
2022-10-16T12:59:51.752Z,21.42
2022-10-16T13:02:42.985Z,21.42
2022-10-16T13:05:21.676Z,21.44
2022-10-16T13:07:49.307Z,21.45
2022-10-16T13:10:30.005Z,21.46
2022-10-16T13:12:59.468Z,21.46
2022-10-16T13:15:36.977Z,21.48
2022-10-16T13:18:09.126Z,21.48
2022-10-16T13:20:54.714Z,21.47
2022-10-16T13:23:39.839Z,21.48
2022-10-16T13:26:09.261Z,21.48
2022-10-16T13:28:37.469Z,21.48
2022-10-16T13:31:05.010Z,21.50
2022-10-16T13:33:38.264Z,21.49
2022-10-16T13:36:05.478Z,21.48
2022-10-16T13:38:33.556Z,21.47
2022-10-16T13:41:04.609Z,21.49
2022-10-16T13:43:35.975Z,21.48
2022-10-16T13:46:04.259Z,21.48
2022-10-16T13:48:31.887Z,21.48
2022-10-16T13:51:01.882Z,21.48
2022-10-16T13:53:28.652Z,21.47
2022-10-16T13:55:55.295Z,21.47
2022-10-16T13:58:22.309Z,21.47
2022-10-16T14:01:03.081Z,21.47
2022-10-16T14:03:31.022Z,21.46
2022-10-16T14:05:59.655Z,21.45
2022-10-16T14:08:27.536Z,21.45
2022-10-16T14:10:56.819Z,21.46
2022-10-16T14:13:44.041Z,21.47
2022-10-16T14:16:11.963Z,21.46
2022-10-16T14:18:40.064Z,21.47
2022-10-16T14:21:08.173Z,21.46
2022-10-16T14:23:39.881Z,21.46
2022-10-16T14:26:16.933Z,21.46
2022-10-16T14:28:45.551Z,21.47
2022-10-16T14:31:27.350Z,21.49
2022-10-16T14:33:55.498Z,21.49
2022-10-16T14:36:23.466Z,21.51
2022-10-16T14:39:10.777Z,21.53
2022-10-16T14:42:00.525Z,21.54
2022-10-16T14:44:34.822Z,21.58
2022-10-16T14:47:14.850Z,21.60
2022-10-16T14:49:42.993Z,21.62
2022-10-16T14:52:19.550Z,21.63
2022-10-16T14:54:50.442Z,21.63
2022-10-16T14:57:18.716Z,21.64
2022-10-16T14:59:46.573Z,21.67
2022-10-16T15:02:26.711Z,21.69
2022-10-16T15:04:53.485Z,21.70
2022-10-16T15:07:20.470Z,21.70
2022-10-16T15:09:49.284Z,21.70
2022-10-16T15:12:16.460Z,21.73
2022-10-16T15:14:43.159Z,21.76
2022-10-16T15:17:11.248Z,21.74
2022-10-16T15:19:38.081Z,21.76
2022-10-16T15:22:04.938Z,21.77
2022-10-16T15:24:31.597Z,21.77
2022-10-16T15:26:58.235Z,21.79
2022-10-16T15:29:24.826Z,21.78
2022-10-16T15:31:54.624Z,21.80
2022-10-16T15:34:21.360Z,21.79
2022-10-16T15:36:47.990Z,21.81
2022-10-16T15:39:19.225Z,21.82
2022-10-16T15:41:57.819Z,21.81
2022-10-16T15:44:26.930Z,21.82
2022-10-16T15:46:55.908Z,21.82
2022-10-16T15:49:22.925Z,21.83
2022-10-16T15:51:57.423Z,21.83
2022-10-16T15:54:24.542Z,21.82
2022-10-16T15:56:51.644Z,21.82
2022-10-16T15:59:18.750Z,21.83
2022-10-16T16:01:54.655Z,21.82
2022-10-16T16:07:11.567Z,21.82
2022-10-16T16:09:38.866Z,21.80
2022-10-16T16:12:05.874Z,21.80
2022-10-16T16:14:32.665Z,21.80
2022-10-16T16:16:59.659Z,21.79
2022-10-16T16:19:26.403Z,21.80
2022-10-16T16:21:56.155Z,21.79
2022-10-16T16:24:22.994Z,21.79
2022-10-16T16:26:49.880Z,21.80
2022-10-16T16:29:17.282Z,21.81
2022-10-16T16:31:54.143Z,21.83
2022-10-16T16:34:21.782Z,21.84
2022-10-16T16:36:48.726Z,21.86
2022-10-16T16:39:15.468Z,21.87
2022-10-16T16:41:46.241Z,21.88
2022-10-16T16:44:13.772Z,21.90
2022-10-16T16:46:40.934Z,21.90
2022-10-16T16:49:08.117Z,21.92
2022-10-16T16:51:38.305Z,21.93
2022-10-16T16:54:08.687Z,21.95
2022-10-16T16:56:36.050Z,21.95
2022-10-16T16:59:03.063Z,21.95
2022-10-16T17:01:30.279Z,21.96
2022-10-16T17:03:58.208Z,21.98
2022-10-16T17:06:26.528Z,21.98
2022-10-16T17:08:53.390Z,21.99
2022-10-16T17:11:21.594Z,21.99
2022-10-16T17:13:49.997Z,22.00
2022-10-16T17:16:19.331Z,22.01
2022-10-16T17:18:46.036Z,22.02
2022-10-16T17:21:13.691Z,22.03
2022-10-16T17:23:40.503Z,22.01
2022-10-16T17:26:08.415Z,22.02
2022-10-16T17:28:35.327Z,22.03
2022-10-16T17:31:16.006Z,22.05
2022-10-16T17:33:43.373Z,22.04
2022-10-16T17:36:10.824Z,22.05
2022-10-16T17:38:37.768Z,22.04
2022-10-16T17:41:11.117Z,22.05
2022-10-16T17:43:38.009Z,22.05
2022-10-16T17:46:04.771Z,22.06
2022-10-16T17:48:31.405Z,22.05
2022-10-16T17:50:57.989Z,22.05
2022-10-16T17:53:24.603Z,22.05
2022-10-16T17:55:57.148Z,22.05
2022-10-16T17:58:23.911Z,22.05
2022-10-16T18:00:50.715Z,22.04
2022-10-16T18:03:17.321Z,22.06
2022-10-16T18:05:43.935Z,22.05
2022-10-16T18:08:10.530Z,22.03
2022-10-16T18:10:37.413Z,22.03
2022-10-16T18:13:04.044Z,22.03
2022-10-16T18:15:30.728Z,22.03
2022-10-16T18:18:04.314Z,22.02
2022-10-16T18:20:30.908Z,22.02
2022-10-16T18:22:57.505Z,22.02
2022-10-16T18:25:24.145Z,22.00
2022-10-16T18:27:50.747Z,22.01
2022-10-16T18:30:17.375Z,22.00
2022-10-16T18:32:44.063Z,22.00
2022-10-16T18:35:11.020Z,21.99
2022-10-16T18:37:37.615Z,21.98
2022-10-16T18:40:04.857Z,21.98
2022-10-16T18:42:32.023Z,21.97
2022-10-16T18:44:58.593Z,21.95
2022-10-16T18:47:25.552Z,21.95
2022-10-16T18:52:17.870Z,21.93
2022-10-16T18:54:51.344Z,21.92
2022-10-16T18:57:17.983Z,21.92
2022-10-16T18:59:44.615Z,21.90
2022-10-16T19:02:12.378Z,21.90
2022-10-16T19:04:38.962Z,21.88
2022-10-16T19:07:05.669Z,21.88
2022-10-16T19:09:32.288Z,21.87
2022-10-16T19:11:59.837Z,21.87
2022-10-16T19:14:26.559Z,21.86
2022-10-16T19:16:53.307Z,21.85
2022-10-16T19:19:20.293Z,21.80
2022-10-16T19:22:11.917Z,21.73
2022-10-16T19:24:39.062Z,21.74
2022-10-16T19:27:05.870Z,21.73
2022-10-16T19:29:32.948Z,21.74
2022-10-16T19:32:05.113Z,21.72
2022-10-16T19:34:34.603Z,21.72
2022-10-16T19:37:01.192Z,21.73
2022-10-16T19:39:27.917Z,21.72
2022-10-16T19:42:00.590Z,21.70
2022-10-16T19:44:27.324Z,21.69
2022-10-16T19:46:53.939Z,21.69
2022-10-16T19:49:22.100Z,21.66
2022-10-16T19:51:55.252Z,21.65
2022-10-16T19:54:22.029Z,21.63
2022-10-16T19:56:48.693Z,21.63
2022-10-16T19:59:19.244Z,21.62
2022-10-16T20:01:58.763Z,21.61
2022-10-16T20:04:25.884Z,21.59
2022-10-16T20:06:52.560Z,21.59
2022-10-16T20:09:19.202Z,21.58
2022-10-16T20:11:53.163Z,21.56
2022-10-16T20:14:19.905Z,21.55
2022-10-16T20:16:46.664Z,21.56
2022-10-16T20:19:13.946Z,21.54
2022-10-16T20:21:56.839Z,21.53
2022-10-16T20:24:23.514Z,21.52
2022-10-16T20:26:50.162Z,21.49
2022-10-16T20:29:16.839Z,21.50
2022-10-16T20:31:51.821Z,21.48
2022-10-16T20:34:18.483Z,21.47
2022-10-16T20:36:45.640Z,21.48
2022-10-16T20:39:13.970Z,21.46
2022-10-16T20:41:57.011Z,21.44
2022-10-16T20:44:23.631Z,21.43
2022-10-16T20:46:50.288Z,21.42
2022-10-16T20:49:35.878Z,21.39
2022-10-16T20:52:03.630Z,21.37
2022-10-16T20:54:30.299Z,21.40
2022-10-16T20:56:58.124Z,21.36
2022-10-16T20:59:24.786Z,21.34
2022-10-16T21:01:54.409Z,21.32
2022-10-16T21:04:21.239Z,21.30
2022-10-16T21:06:47.828Z,21.29
2022-10-16T21:09:14.574Z,21.26
2022-10-16T21:11:46.377Z,21.26
2022-10-16T21:14:13.175Z,21.25
2022-10-16T21:16:39.847Z,21.26
2022-10-16T21:19:06.656Z,21.24
2022-10-16T21:21:34.921Z,21.22
2022-10-16T21:24:02.068Z,21.20
2022-10-16T21:26:28.951Z,21.20
2022-10-16T21:29:00.174Z,21.19
2022-10-16T21:31:26.982Z,21.18
2022-10-16T21:33:53.797Z,21.19
2022-10-16T21:36:22.372Z,21.16
2022-10-16T21:38:49.385Z,21.14
2022-10-16T21:41:22.892Z,21.12
2022-10-16T21:43:49.816Z,21.11
2022-10-16T21:46:17.728Z,21.09
2022-10-16T21:48:44.440Z,21.07
2022-10-16T21:51:11.996Z,21.08
2022-10-16T21:53:39.001Z,21.10
2022-10-16T21:56:06.644Z,21.08
2022-10-16T21:58:33.735Z,21.08
2022-10-16T22:01:06.351Z,21.08
2022-10-16T22:03:33.169Z,21.11
2022-10-16T22:06:06.962Z,21.14
2022-10-16T22:08:34.503Z,21.16
2022-10-16T22:11:22.332Z,21.18
2022-10-16T22:13:52.641Z,21.21
2022-10-16T22:16:23.451Z,21.22
2022-10-16T22:18:51.932Z,21.26
2022-10-16T22:21:18.696Z,21.27
2022-10-16T22:23:45.291Z,21.33
2022-10-16T22:26:12.693Z,21.47
2022-10-16T22:28:40.084Z,21.56
2022-10-16T22:31:08.344Z,21.61
2022-10-16T22:33:35.256Z,21.70
2022-10-16T22:36:02.656Z,21.69
2022-10-16T22:38:30.885Z,21.72
2022-10-16T22:41:01.506Z,21.71
2022-10-16T22:43:28.118Z,21.71
2022-10-16T22:45:54.716Z,21.71
2022-10-16T22:48:22.090Z,21.73
2022-10-16T22:50:49.049Z,21.75
2022-10-16T22:53:15.715Z,21.76
2022-10-16T22:55:42.429Z,21.76
2022-10-16T22:58:09.025Z,21.76
2022-10-16T23:00:35.628Z,21.76
2022-10-16T23:03:02.277Z,21.75
2022-10-16T23:05:28.925Z,21.77
2022-10-16T23:07:55.617Z,21.77
2022-10-16T23:10:27.675Z,21.76
2022-10-16T23:12:54.307Z,21.77
2022-10-16T23:15:20.940Z,21.77
2022-10-16T23:17:47.536Z,21.77
2022-10-16T23:20:14.208Z,21.77
2022-10-16T23:22:40.811Z,21.77
2022-10-16T23:25:09.216Z,21.77
2022-10-16T23:27:35.820Z,21.77
2022-10-16T23:30:02.469Z,21.77
2022-10-16T23:32:29.447Z,21.76
2022-10-16T23:34:56.309Z,21.77
2022-10-16T23:37:22.941Z,21.77
2022-10-16T23:39:50.309Z,21.77
2022-10-16T23:42:16.978Z,21.77
2022-10-16T23:44:43.677Z,21.76
2022-10-16T23:47:10.301Z,21.77
2022-10-16T23:49:36.908Z,21.76
2022-10-16T23:52:03.937Z,21.76
2022-10-16T23:54:30.638Z,21.77
2022-10-16T23:56:57.385Z,21.77
2022-10-16T23:59:24.099Z,21.76
